createdAt,value
2023-11-22T00:01:57.206Z,95553.94
2023-11-22T00:04:24.890Z,95554.00
2023-11-22T00:06:52.600Z,95558.09
2023-11-22T00:09:23.862Z,95554.41
2023-11-22T00:11:51.516Z,95554.03
2023-11-22T00:14:20.480Z,95556.69
2023-11-22T00:16:49.104Z,95558.09
2023-11-22T00:19:19.204Z,95557.19
2023-11-22T00:21:46.793Z,95539.91
2023-11-22T00:24:14.205Z,95557.03
2023-11-22T00:26:42.634Z,95542.75
2023-11-22T00:29:10.455Z,95557.09
2023-11-22T00:31:39.393Z,95554.00
2023-11-22T00:34:07.929Z,95560.88
2023-11-22T00:36:35.521Z,95564.94
2023-11-22T00:39:03.023Z,95567.56
2023-11-22T00:41:33.049Z,95563.13
2023-11-22T00:44:00.907Z,95569.88
2023-11-22T00:46:28.604Z,95573.03
2023-11-22T00:48:58.071Z,95570.06
2023-11-22T00:51:25.738Z,95567.22
2023-11-22T00:53:53.769Z,95571.13
2023-11-22T00:56:21.441Z,95572.31
2023-11-22T00:58:50.744Z,95573.13
2023-11-22T01:01:19.284Z,95575.34
2023-11-22T01:07:47.161Z,95584.00
2023-11-22T01:10:14.902Z,95578.28
2023-11-22T01:12:42.753Z,95587.03
2023-11-22T01:15:11.521Z,95574.84
2023-11-22T01:17:39.215Z,95586.84
2023-11-22T01:20:12.471Z,95586.22
2023-11-22T01:22:40.135Z,95573.16
2023-11-22T01:25:09.312Z,95594.84
2023-11-22T01:27:36.924Z,95587.31
2023-11-22T01:30:06.441Z,95589.84
2023-11-22T01:32:34.084Z,95581.53
2023-11-22T01:35:03.666Z,95586.03
2023-11-22T01:37:31.268Z,95601.44
2023-11-22T01:39:58.843Z,95592.72
2023-11-22T01:42:27.797Z,95595.56
2023-11-22T01:44:55.418Z,95599.91
2023-11-22T01:47:23.548Z,95601.75
2023-11-22T01:49:51.449Z,95604.56
2023-11-22T01:52:19.111Z,95609.97
2023-11-22T01:54:46.884Z,95604.69
2023-11-22T01:57:16.188Z,95613.47
2023-11-22T01:59:48.880Z,95622.28
2023-11-22T02:02:16.834Z,95630.31
2023-11-22T02:04:44.720Z,95629.00
2023-11-22T02:07:12.313Z,95626.03
2023-11-22T02:09:39.919Z,95629.00
2023-11-22T02:12:09.276Z,95633.31
2023-11-22T02:14:37.029Z,95636.75
2023-11-22T02:17:06.191Z,95637.13
2023-11-22T02:19:34.072Z,95642.25
2023-11-22T02:22:01.698Z,95644.59
2023-11-22T02:24:30.623Z,95643.16
2023-11-22T02:26:58.210Z,95649.31
2023-11-22T02:29:26.137Z,95652.59
2023-11-22T02:31:53.843Z,95659.94
2023-11-22T02:34:21.294Z,95660.84
2023-11-22T02:36:55.520Z,95662.13
2023-11-22T02:39:39.257Z,95659.22
2023-11-22T02:42:06.902Z,95662.41
2023-11-22T02:44:34.514Z,95666.09
2023-11-22T02:47:02.158Z,95668.28
2023-11-22T02:49:30.678Z,95677.88
2023-11-22T02:51:58.559Z,95677.06
2023-11-22T02:54:26.168Z,95678.59
2023-11-22T02:56:55.121Z,95681.66
2023-11-22T02:59:22.764Z,95676.19
2023-11-22T03:01:52.931Z,95680.16
2023-11-22T03:04:20.521Z,95688.69
2023-11-22T03:06:48.965Z,95690.63
2023-11-22T03:09:16.605Z,95693.41
2023-11-22T03:11:44.210Z,95694.91
2023-11-22T03:14:13.183Z,95708.50
2023-11-22T03:16:41.359Z,95705.72
2023-11-22T03:19:09.097Z,95706.47
2023-11-22T03:21:36.881Z,95714.47
2023-11-22T03:24:05.457Z,95705.38
2023-11-22T03:26:33.537Z,95721.63
2023-11-22T03:29:02.032Z,95706.59
2023-11-22T03:31:31.071Z,95727.28
2023-11-22T03:33:59.414Z,95727.66
2023-11-22T03:36:27.114Z,95734.22
2023-11-22T03:38:54.697Z,95737.53
2023-11-22T03:41:23.335Z,95741.97
2023-11-22T03:43:50.934Z,95737.72
2023-11-22T03:46:18.532Z,95745.44
2023-11-22T03:48:48.177Z,95748.56
2023-11-22T03:51:15.861Z,95749.56
2023-11-22T03:53:43.493Z,95746.31
2023-11-22T03:56:11.145Z,95750.22
2023-11-22T04:02:00.414Z,95762.91
2023-11-22T04:04:29.390Z,95768.06
2023-11-22T04:06:57.047Z,95765.91
2023-11-22T04:09:25.017Z,95767.72
2023-11-22T04:11:52.896Z,95777.78
2023-11-22T04:14:21.498Z,95777.91
2023-11-22T04:16:49.529Z,95781.09
2023-11-22T04:19:17.588Z,95773.34
2023-11-22T04:21:46.998Z,95772.03
2023-11-22T04:24:15.024Z,95767.94
2023-11-22T04:26:42.660Z,95780.56
2023-11-22T04:29:10.378Z,95780.44
2023-11-22T04:31:38.598Z,95781.09
2023-11-22T04:34:06.810Z,95786.19
2023-11-22T04:36:34.455Z,95785.28
2023-11-22T04:39:04.799Z,95789.91
2023-11-22T04:41:32.708Z,95776.47
2023-11-22T04:44:00.358Z,95800.56
2023-11-22T04:46:27.949Z,95805.34
2023-11-22T04:48:56.017Z,95813.91
2023-11-22T04:51:25.201Z,95819.16
2023-11-22T04:53:53.405Z,95823.75
2023-11-22T04:56:22.440Z,95814.88
2023-11-22T04:58:50.417Z,95816.41
2023-11-22T05:01:20.787Z,95825.78
2023-11-22T05:03:49.386Z,95832.63
2023-11-22T05:06:17.633Z,95832.16
2023-11-22T05:08:45.503Z,95839.19
2023-11-22T05:11:13.100Z,95840.47
2023-11-22T05:13:43.386Z,95839.69
2023-11-22T05:16:11.070Z,95841.00
2023-11-22T05:18:38.660Z,95847.09
2023-11-22T05:21:06.305Z,95840.19
2023-11-22T05:23:34.423Z,95842.03
2023-11-22T05:26:02.194Z,95845.78
2023-11-22T05:28:29.881Z,95859.59
2023-11-22T05:30:58.866Z,95829.72
2023-11-22T05:33:26.586Z,95864.19
2023-11-22T05:35:54.955Z,95866.66
2023-11-22T05:38:22.767Z,95862.06
2023-11-22T05:40:50.372Z,95875.69
2023-11-22T05:43:18.849Z,95869.44
2023-11-22T05:45:50.765Z,95885.88
2023-11-22T05:48:20.172Z,95892.78
2023-11-22T05:50:48.130Z,95894.63
2023-11-22T05:53:20.306Z,95888.34
2023-11-22T05:55:48.897Z,95894.59
2023-11-22T05:58:17.485Z,95899.53
2023-11-22T06:00:45.289Z,95896.25
2023-11-22T06:03:13.169Z,95909.53
2023-11-22T06:05:42.834Z,95913.47
2023-11-22T06:08:11.468Z,95917.44
2023-11-22T06:10:42.787Z,95921.38
2023-11-22T06:13:11.665Z,95924.00
2023-11-22T06:15:39.310Z,95923.03
2023-11-22T06:18:07.157Z,95926.16
2023-11-22T06:20:34.788Z,95930.75
2023-11-22T06:23:04.000Z,95926.31
2023-11-22T06:25:32.003Z,95924.00
2023-11-22T06:28:01.329Z,95934.19
2023-11-22T06:30:31.468Z,95934.34
2023-11-22T06:32:59.586Z,95938.28
2023-11-22T06:35:27.303Z,95936.66
2023-11-22T06:37:55.352Z,95950.13
2023-11-22T06:40:24.393Z,95955.88
2023-11-22T06:42:52.567Z,95961.94
2023-11-22T06:45:20.413Z,95956.69
2023-11-22T06:47:48.515Z,95963.25
2023-11-22T06:50:17.065Z,95967.38
2023-11-22T06:52:44.818Z,95971.66
2023-11-22T06:55:13.410Z,95948.13
2023-11-22T06:57:42.828Z,95975.44
2023-11-22T07:00:11.644Z,95980.84
2023-11-22T07:02:39.929Z,95982.34
2023-11-22T07:05:10.108Z,95981.69
2023-11-22T07:07:38.843Z,95990.38
2023-11-22T07:10:07.788Z,95996.94
2023-11-22T07:12:36.420Z,96000.41
2023-11-22T07:15:07.004Z,95991.53
2023-11-22T07:17:35.132Z,96001.75
2023-11-22T07:20:03.405Z,95995.47
2023-11-22T07:22:31.649Z,96000.75
2023-11-22T07:25:02.373Z,96001.72
2023-11-22T07:27:30.482Z,96004.66
2023-11-22T07:29:58.147Z,96001.72
2023-11-22T07:32:27.127Z,96020.94
2023-11-22T07:34:57.104Z,96021.59
2023-11-22T07:37:24.987Z,96030.47
2023-11-22T07:39:53.458Z,96046.25
2023-11-22T07:42:21.056Z,96044.91
2023-11-22T07:44:48.817Z,96046.25
2023-11-22T07:47:16.960Z,96053.66
2023-11-22T07:49:47.681Z,96049.22
2023-11-22T07:52:15.694Z,96060.69
2023-11-22T07:54:43.420Z,96064.00
2023-11-22T07:57:10.872Z,96066.63
2023-11-22T07:59:38.984Z,96066.47
2023-11-22T08:02:12.088Z,96074.50
2023-11-22T08:04:41.494Z,96070.41
2023-11-22T08:07:14.487Z,96078.13
2023-11-22T08:09:42.436Z,96081.59
2023-11-22T08:12:12.239Z,96079.13
2023-11-22T08:14:41.344Z,96080.63
2023-11-22T08:17:10.013Z,96089.34
2023-11-22T08:19:40.598Z,96095.91
2023-11-22T08:22:08.238Z,96111.69
2023-11-22T08:24:37.674Z,96120.50
2023-11-22T08:27:08.300Z,96120.69
2023-11-22T08:29:36.557Z,96116.75
2023-11-22T08:32:04.368Z,96103.09
2023-11-22T08:34:31.827Z,96112.19
2023-11-22T08:37:00.864Z,96110.00
2023-11-22T08:39:28.871Z,96112.94
2023-11-22T08:41:59.653Z,96109.66
2023-11-22T08:44:27.284Z,96111.28
2023-11-22T08:46:55.006Z,96126.25
2023-11-22T08:49:22.461Z,96133.41
2023-11-22T08:51:50.088Z,96131.63
2023-11-22T08:54:19.307Z,96132.25
2023-11-22T08:56:47.960Z,96139.53
2023-11-22T08:59:17.981Z,96138.19
2023-11-22T09:01:46.732Z,96147.53
2023-11-22T09:04:14.681Z,96146.38
2023-11-22T09:06:42.329Z,96156.94
2023-11-22T09:09:10.355Z,96148.03
2023-11-22T09:11:38.327Z,96149.53
2023-11-22T09:14:06.504Z,96166.44
2023-11-22T09:16:40.014Z,96170.53
2023-11-22T09:19:08.648Z,96178.25
2023-11-22T09:21:36.315Z,96178.13
2023-11-22T09:24:06.940Z,96178.94
2023-11-22T09:26:35.390Z,96191.63
2023-11-22T09:29:03.108Z,96197.13
2023-11-22T09:31:30.768Z,96191.13
2023-11-22T09:34:00.068Z,96193.88
2023-11-22T09:36:28.696Z,96195.06
2023-11-22T09:38:56.746Z,96200.56
2023-11-22T09:41:26.358Z,96206.31
2023-11-22T09:43:54.032Z,96209.06
2023-11-22T09:46:25.088Z,96207.50
2023-11-22T09:48:56.929Z,96213.31
2023-11-22T09:51:31.129Z,96218.19
2023-11-22T09:54:01.005Z,96213.97
2023-11-22T09:56:29.692Z,96219.25
2023-11-22T09:59:01.983Z,96224.16
2023-11-22T10:01:31.981Z,96208.59
2023-11-22T10:04:01.782Z,96203.31
2023-11-22T10:06:34.431Z,96210.13
2023-11-22T10:09:05.320Z,96208.63
2023-11-22T10:11:34.331Z,96214.19
2023-11-22T10:14:02.001Z,96190.13
2023-11-22T10:16:29.728Z,96205.41
2023-11-22T10:18:57.338Z,96206.28
2023-11-22T10:21:26.450Z,96202.69
2023-11-22T10:23:58.511Z,96187.84
2023-11-22T10:26:29.246Z,96219.22
2023-11-22T10:28:58.556Z,96220.41
2023-11-22T10:31:27.033Z,96213.69
2023-11-22T10:33:56.334Z,96227.81
2023-11-22T10:36:24.625Z,96214.84
2023-11-22T10:38:52.908Z,96218.84
2023-11-22T10:41:22.936Z,96216.38
2023-11-22T10:43:54.218Z,96211.66
2023-11-22T10:46:23.002Z,96213.84
2023-11-22T10:48:51.098Z,96214.97
2023-11-22T10:51:22.581Z,96212.03
2023-11-22T10:53:51.550Z,96208.53
2023-11-22T10:56:24.455Z,96217.19
2023-11-22T10:58:53.480Z,96216.09
2023-11-22T11:01:22.812Z,96221.22
2023-11-22T11:03:58.381Z,96227.75
2023-11-22T11:06:32.878Z,96237.09
2023-11-22T11:09:03.010Z,96220.97
2023-11-22T11:11:34.375Z,96243.69
2023-11-22T11:14:04.107Z,96248.28
2023-11-22T11:16:35.500Z,96239.06
2023-11-22T11:19:04.671Z,96258.34
2023-11-22T11:21:35.153Z,96264.72
2023-11-22T11:24:04.718Z,96270.63
2023-11-22T11:26:36.797Z,96268.00
2023-11-22T11:29:05.230Z,96248.00
2023-11-22T11:31:34.065Z,96241.91
2023-11-22T11:34:02.675Z,96247.03
2023-11-22T11:36:33.100Z,96236.81
2023-11-22T11:39:03.758Z,96242.25
2023-11-22T11:41:38.394Z,96235.69
2023-11-22T11:44:10.407Z,96240.50
2023-11-22T11:46:40.645Z,96225.09
2023-11-22T11:49:10.129Z,96230.69
2023-11-22T11:51:39.107Z,96214.94
2023-11-22T11:54:07.585Z,96222.22
2023-11-22T11:56:36.976Z,96223.69
2023-11-22T11:59:04.770Z,96222.22
2023-11-22T12:01:33.989Z,96228.44
2023-11-22T12:04:02.918Z,96229.56
2023-11-22T12:06:32.162Z,96228.81
2023-11-22T12:09:00.450Z,96221.03
2023-11-22T12:11:28.294Z,96231.91
2023-11-22T12:13:57.958Z,96223.06
2023-11-22T12:16:25.775Z,96228.31
2023-11-22T12:18:53.562Z,96236.91
2023-11-22T12:21:21.823Z,96243.16
2023-11-22T12:23:50.356Z,96250.84
2023-11-22T12:26:21.790Z,96248.38
2023-11-22T12:29:00.638Z,96262.16
2023-11-22T12:31:36.865Z,96265.31
2023-11-22T12:34:05.456Z,96260.69
2023-11-22T12:36:34.119Z,96255.94
2023-11-22T12:39:03.760Z,96257.09
2023-11-22T12:41:33.892Z,96262.34
2023-11-22T12:44:06.173Z,96256.59
2023-11-22T12:46:50.170Z,96235.50
2023-11-22T12:49:20.063Z,96250.78
2023-11-22T12:51:49.390Z,96250.00
2023-11-22T12:54:17.300Z,96256.75
2023-11-22T12:56:44.974Z,96249.81
2023-11-22T12:59:13.484Z,96261.66
2023-11-22T13:01:41.511Z,96261.97
2023-11-22T13:04:11.093Z,96276.75
2023-11-22T13:06:39.156Z,96288.84
2023-11-22T13:09:07.731Z,96282.03
2023-11-22T13:11:35.803Z,96267.59
2023-11-22T13:14:03.697Z,96282.81
2023-11-22T13:16:31.138Z,96288.94
2023-11-22T13:18:58.756Z,96293.81
2023-11-22T13:21:28.064Z,96289.34
2023-11-22T13:23:56.741Z,96286.56
2023-11-22T13:26:24.378Z,96278.69
2023-11-22T13:28:53.087Z,96246.25
2023-11-22T13:31:20.757Z,96283.75
2023-11-22T13:33:48.416Z,96292.16
2023-11-22T13:36:16.152Z,96289.34
2023-11-22T13:38:45.296Z,96291.97
2023-11-22T13:41:13.302Z,96282.00
2023-11-22T13:43:41.078Z,96274.19
2023-11-22T13:46:11.207Z,96273.38
2023-11-22T13:48:39.030Z,96286.91
2023-11-22T13:51:11.456Z,96283.47
2023-11-22T13:53:44.506Z,96286.06
2023-11-22T13:56:15.170Z,96297.31
2023-11-22T13:58:43.896Z,96296.06
2023-11-22T14:01:16.455Z,96290.38
2023-11-22T14:03:44.382Z,96283.78
2023-11-22T14:06:14.808Z,96276.22
2023-11-22T14:08:42.722Z,96279.16
2023-11-22T14:11:10.803Z,96250.34
2023-11-22T14:13:41.032Z,96280.66
2023-11-22T14:16:09.853Z,96276.56
2023-11-22T14:18:37.759Z,96283.16
2023-11-22T14:21:05.801Z,96291.38
2023-11-22T14:23:34.397Z,96273.19
2023-11-22T14:26:02.796Z,96305.63
2023-11-22T14:28:31.143Z,96309.81
2023-11-22T14:31:00.158Z,96306.06
2023-11-22T14:33:31.451Z,96316.88
2023-11-22T14:35:59.915Z,96322.28
2023-11-22T14:38:28.051Z,96322.19
2023-11-22T14:40:56.622Z,96326.91
2023-11-22T14:43:24.249Z,96322.84
2023-11-22T14:45:52.530Z,96325.91
2023-11-22T14:48:22.060Z,96330.59
2023-11-22T14:50:49.803Z,96328.94
2023-11-22T14:53:17.856Z,96329.00
2023-11-22T14:55:45.541Z,96330.63
2023-11-22T14:58:13.197Z,96322.56
2023-11-22T15:00:40.932Z,96331.97
2023-11-22T15:03:09.275Z,96349.72
2023-11-22T15:05:38.454Z,96353.47
2023-11-22T15:08:06.796Z,96363.13
2023-11-22T15:10:34.524Z,96367.59
2023-11-22T15:13:03.585Z,96369.88
2023-11-22T15:15:31.575Z,96381.94
2023-11-22T15:17:59.358Z,96385.38
2023-11-22T15:20:27.482Z,96373.75
2023-11-22T15:22:57.515Z,96379.97
2023-11-22T15:25:27.011Z,96387.78
2023-11-22T15:27:55.478Z,96372.72
2023-11-22T15:30:23.524Z,96368.44
2023-11-22T15:32:51.231Z,96366.31
2023-11-22T15:35:19.561Z,96371.97
2023-11-22T15:37:47.339Z,96366.84
2023-11-22T15:40:18.183Z,96354.56
2023-11-22T15:42:46.125Z,96337.59
2023-11-22T15:45:13.995Z,96341.88
2023-11-22T15:47:42.076Z,96349.03
2023-11-22T15:50:11.579Z,96346.97
2023-11-22T15:52:39.551Z,96352.56
2023-11-22T15:55:08.024Z,96340.28
2023-11-22T15:57:37.612Z,96334.56
2023-11-22T16:00:11.369Z,96352.63
2023-11-22T16:02:39.372Z,96350.66
2023-11-22T16:05:09.194Z,96352.81
2023-11-22T16:07:38.461Z,96352.16
2023-11-22T16:10:09.244Z,96362.53
2023-11-22T16:12:38.454Z,96366.09
2023-11-22T16:15:07.240Z,96368.13
2023-11-22T16:17:36.847Z,96377.16
2023-11-22T16:20:12.018Z,96364.66
2023-11-22T16:22:40.598Z,96391.94
2023-11-22T16:25:09.354Z,96384.81
2023-11-22T16:27:39.287Z,96397.50
2023-11-22T16:30:09.577Z,96406.59
2023-11-22T16:32:38.146Z,96423.88
2023-11-22T16:35:06.976Z,96432.88
2023-11-22T16:37:35.489Z,96435.16
2023-11-22T16:40:06.320Z,96431.69
2023-11-22T16:42:34.081Z,96443.63
2023-11-22T16:45:02.952Z,96452.63
2023-11-22T16:47:31.371Z,96439.56
2023-11-22T16:49:59.042Z,96434.91
2023-11-22T16:52:30.269Z,96443.72
2023-11-22T16:54:58.138Z,96447.38
2023-11-22T16:57:25.877Z,96444.31
2023-11-22T16:59:53.595Z,96454.91
2023-11-22T17:02:22.600Z,96456.53
2023-11-22T17:04:50.265Z,96448.13
2023-11-22T17:07:17.986Z,96438.38
2023-11-22T17:09:46.069Z,96440.41
2023-11-22T17:12:13.758Z,96434.56
2023-11-22T17:14:41.374Z,96437.47
2023-11-22T17:17:09.179Z,96444.06
2023-11-22T17:19:37.997Z,96442.72
2023-11-22T17:22:05.732Z,96458.94
2023-11-22T17:24:33.383Z,96460.97
2023-11-22T17:27:01.463Z,96468.09
2023-11-22T17:29:30.981Z,96457.47
2023-11-22T17:31:58.644Z,96454.06
2023-11-22T17:34:27.447Z,96438.16
2023-11-22T17:36:56.446Z,96457.59
2023-11-22T17:39:24.189Z,96456.00
2023-11-22T17:41:51.760Z,96458.13
2023-11-22T17:44:19.460Z,96459.31
2023-11-22T17:46:47.226Z,96456.41
2023-11-22T17:49:14.784Z,96473.31
2023-11-22T17:51:42.655Z,96480.50
2023-11-22T17:54:11.728Z,96478.78
2023-11-22T17:56:39.499Z,96487.84
2023-11-22T17:59:07.050Z,96477.94
2023-11-22T18:01:34.736Z,96479.53
2023-11-22T18:04:02.803Z,96476.28
2023-11-22T18:06:30.538Z,96465.50
2023-11-22T18:08:59.088Z,96485.78
2023-11-22T18:11:28.678Z,96480.34
2023-11-22T18:14:00.131Z,96487.34
2023-11-22T18:16:28.579Z,96470.13
2023-11-22T18:18:56.237Z,96496.41
2023-11-22T18:21:23.892Z,96489.97
2023-11-22T18:23:51.964Z,96480.88
2023-11-22T18:26:19.671Z,96493.50
2023-11-22T18:28:49.140Z,96481.53
2023-11-22T18:31:17.104Z,96506.84
2023-11-22T18:33:45.278Z,96504.69
2023-11-22T18:36:13.177Z,96504.78
2023-11-22T18:38:45.229Z,96521.13
2023-11-22T18:41:12.957Z,96524.44
2023-11-22T18:43:40.664Z,96517.47
2023-11-22T18:46:09.786Z,96502.97
2023-11-22T18:48:38.863Z,96519.53
2023-11-22T18:51:06.851Z,96525.25
2023-11-22T18:53:34.808Z,96516.97
2023-11-22T18:56:02.771Z,96519.47
2023-11-22T18:58:30.826Z,96504.28
2023-11-22T19:00:58.578Z,96523.84
2023-11-22T19:03:28.176Z,96520.00
2023-11-22T19:05:57.035Z,96514.81
2023-11-22T19:08:24.839Z,96523.53
2023-11-22T19:10:52.296Z,96527.59
2023-11-22T19:13:23.452Z,96522.63
2023-11-22T19:15:51.450Z,96524.81
2023-11-22T19:18:19.273Z,96541.69
2023-11-22T19:20:50.565Z,96539.75
2023-11-22T19:23:18.308Z,96537.19
2023-11-22T19:25:47.023Z,96533.50
2023-11-22T19:28:13.699Z,96519.44
2023-11-22T19:30:41.439Z,96515.69
2023-11-22T19:33:09.173Z,96524.75
2023-11-22T19:35:36.697Z,96514.13
2023-11-22T19:38:06.502Z,96490.78
2023-11-22T19:40:36.392Z,96503.84
2023-11-22T19:43:04.995Z,96503.31
2023-11-22T19:45:32.722Z,96504.78
2023-11-22T19:48:00.395Z,96500.78
2023-11-22T19:50:30.941Z,96503.25
2023-11-22T19:52:58.645Z,96503.41
2023-11-22T19:55:27.773Z,96515.19
2023-11-22T19:57:58.561Z,96520.72
2023-11-22T20:00:26.842Z,96521.31
2023-11-22T20:02:54.862Z,96534.78
2023-11-22T20:05:22.671Z,96544.25
2023-11-22T20:07:50.257Z,96552.25
2023-11-22T20:10:24.271Z,96548.34
2023-11-22T20:12:53.767Z,96539.34
2023-11-22T20:15:21.752Z,96534.84
2023-11-22T20:17:49.795Z,96538.75
2023-11-22T20:20:18.592Z,96524.34
2023-11-22T20:22:46.191Z,96505.31
2023-11-22T20:25:13.823Z,96506.09
2023-11-22T20:27:41.476Z,96505.72
2023-11-22T20:30:11.286Z,96493.19
2023-11-22T20:32:40.425Z,96500.69
2023-11-22T20:35:08.764Z,96501.53
2023-11-22T20:37:37.346Z,96499.56
2023-11-22T20:40:08.242Z,96491.16
2023-11-22T20:42:36.151Z,96491.69
2023-11-22T20:45:04.118Z,96491.81
2023-11-22T20:47:33.152Z,96490.25
2023-11-22T20:50:00.809Z,96491.81
2023-11-22T20:52:28.437Z,96485.31
2023-11-22T20:54:56.042Z,96472.91
2023-11-22T20:57:24.000Z,96476.38
2023-11-22T20:59:53.765Z,96468.56
2023-11-22T21:02:21.910Z,96467.44
2023-11-22T21:04:50.947Z,96469.69
2023-11-22T21:07:19.295Z,96466.63
2023-11-22T21:09:47.737Z,96465.00
2023-11-22T21:12:15.453Z,96470.53
2023-11-22T21:14:42.991Z,96461.97
2023-11-22T21:17:11.874Z,96460.44
2023-11-22T21:19:39.576Z,96456.53
2023-11-22T21:22:08.590Z,96461.66
2023-11-22T21:24:36.494Z,96467.59
2023-11-22T21:27:04.451Z,96465.28
2023-11-22T21:29:32.196Z,96467.22
2023-11-22T21:31:59.895Z,96467.72
2023-11-22T21:34:27.784Z,96440.94
2023-11-22T21:36:55.944Z,96457.75
2023-11-22T21:39:25.437Z,96451.75
2023-11-22T21:41:53.702Z,96456.53
2023-11-22T21:44:21.355Z,96454.75
2023-11-22T21:46:49.058Z,96454.38
2023-11-22T21:49:16.566Z,96460.75
2023-11-22T21:51:44.762Z,96455.34
2023-11-22T21:54:12.439Z,96456.47
2023-11-22T21:56:44.564Z,96458.50
2023-11-22T21:59:12.436Z,96468.41
2023-11-22T22:01:40.419Z,96475.78
2023-11-22T22:04:09.525Z,96474.78
2023-11-22T22:06:37.564Z,96462.47
2023-11-22T22:09:08.646Z,96481.81
2023-11-22T22:11:36.452Z,96488.53
2023-11-22T22:14:05.419Z,96489.72
2023-11-22T22:16:33.093Z,96480.28
2023-11-22T22:19:00.863Z,96478.47
2023-11-22T22:21:29.234Z,96462.25
2023-11-22T22:23:57.293Z,96456.72
2023-11-22T22:26:24.971Z,96448.38
2023-11-22T22:28:52.693Z,96454.59
2023-11-22T22:31:22.015Z,96454.09
2023-11-22T22:33:50.058Z,96447.56
2023-11-22T22:36:18.685Z,96447.38
2023-11-22T22:38:47.424Z,96455.94
2023-11-22T22:41:19.311Z,96454.69
2023-11-22T22:43:47.046Z,96452.44
2023-11-22T22:46:14.665Z,96450.38
2023-11-22T22:48:45.347Z,96446.34
2023-11-22T22:51:13.953Z,96438.06
2023-11-22T22:53:42.325Z,96447.16
2023-11-22T22:56:10.308Z,96445.13
2023-11-22T22:58:39.181Z,96433.13
2023-11-22T23:01:07.711Z,96434.13
2023-11-22T23:03:36.891Z,96433.94
2023-11-22T23:06:06.566Z,96427.88
2023-11-22T23:08:38.106Z,96433.81
2023-11-22T23:11:06.861Z,96433.66
2023-11-22T23:13:34.551Z,96428.03
2023-11-22T23:16:02.729Z,96444.25
2023-11-22T23:18:30.416Z,96446.41
2023-11-22T23:20:58.107Z,96448.28
2023-11-22T23:23:27.279Z,96450.59
2023-11-22T23:25:54.919Z,96449.09
2023-11-22T23:28:22.825Z,96437.19
2023-11-22T23:30:50.586Z,96444.59
2023-11-22T23:33:18.306Z,96447.91
2023-11-22T23:35:48.113Z,96446.94
2023-11-22T23:38:16.534Z,96450.41
2023-11-22T23:40:46.077Z,96430.50
2023-11-22T23:43:13.810Z,96435.44
2023-11-22T23:45:41.328Z,96426.97
2023-11-22T23:48:13.208Z,96426.00
2023-11-22T23:50:41.645Z,96432.44
2023-11-22T23:53:09.309Z,96432.34
2023-11-22T23:55:36.938Z,96424.94
2023-11-22T23:58:06.587Z,96422.31
